Terminal Aerodrome Forecast
Issued by NWS Jackson, MS

Home | Current Version | Previous Version | Text Only | Print | Product List | Glossary On
Versions: 1 2 3 4 5 6 7 8 9 10 11 12 13 14 15 16 17 18 19 20 21
000
FTUS44 KMEG 311730
TAFTUP
TAF
KTUP 311730Z 3118/0118 VRB06KT P6SM SCT060 BKN120
     FM010000 VRB03KT P6SM SCT120
      TEMPO 0109/0113 3SM BR
     FM011500 24003KT P6SM SCT060 BKN080 BKN120=

USA.gov is the U.S. government's official web portal to all federal, state and local government web resources and services.